METAR Data
IDs: Format: Raw Decoded Include TAF

Data at: 1333 UTC 17 Sep 2019

METAR for:PAVC (King Cove Arpt, AK, US)
Text:PAVC 171324Z AUTO 10005KT 2 1/2SM -RA BR BKN004 BKN009 OVC012 10/10 A2974 RMK AO2 CIG 002V008 P0000
Temperature: 10.0°C ( 50°F)
Dewpoint: 10.0°C ( 50°F) [RH = 100%]
Pressure (altimeter):29.74 inches Hg (1007.2 mb)
Winds:from the E (100 degrees) at 6 MPH (5 knots; 2.6 m/s)
Visibility: 2.50 sm ( 4.02 km)
Ceiling:400 feet AGL
Clouds: broken clouds at 400 feet AGL, broken clouds at 900 feet AGL, overcast cloud deck at 1200 feet AGL
Weather:-RA BR (light rain, mist)
QC Flag:automated observation with no human augmentation
Text:PAVC 171320Z AUTO 08005KT 3SM -RA BR BKN006 OVC012 10/10 A2974 RMK AO2 CIG 003V009 P0000
Temperature: 10.0°C ( 50°F)
Dewpoint: 10.0°C ( 50°F) [RH = 100%]
Pressure (altimeter):29.74 inches Hg (1007.2 mb)
Winds:from the E (80 degrees) at 6 MPH (5 knots; 2.6 m/s)
Visibility: 3 sm ( 5 km)
Ceiling:600 feet AGL
Clouds: broken clouds at 600 feet AGL, overcast cloud deck at 1200 feet AGL
Weather:-RA BR (light rain, mist)
QC Flag:automated observation with no human augmentation
Text:PAVC 171307Z AUTO 05006KT 4SM -RA BR FEW008 OVC012 10/10 A2974 RMK AO2 P0000
Temperature: 10.0°C ( 50°F)
Dewpoint: 10.0°C ( 50°F) [RH = 100%]
Pressure (altimeter):29.74 inches Hg (1007.2 mb)
Winds:from the NE (50 degrees) at 7 MPH (6 knots; 3.1 m/s)
Visibility: 4 sm ( 6 km)
Ceiling:1200 feet AGL
Clouds: few clouds at 800 feet AGL, overcast cloud deck at 1200 feet AGL
Weather:-RA BR (light rain, mist)
QC Flag:automated observation with no human augmentation
Text:PAVC 171256Z AUTO 09007KT 2SM -RA BR OVC012 10/10 A2974 RMK AO2 SLP076 P0001 T01000100
Temperature: 10.0°C ( 50°F)
Dewpoint: 10.0°C ( 50°F) [RH = 100%]
Pressure (altimeter):29.74 inches Hg (1007.2 mb) [Sea level pressure: 1007.6 mb]
Winds:from the E (90 degrees) at 8 MPH (7 knots; 3.6 m/s)
Visibility: 2.00 sm ( 3.22 km)
Ceiling:1200 feet AGL
Clouds: overcast cloud deck at 1200 feet AGL
Weather:-RA BR (light rain, mist)
QC Flag:automated observation with no human augmentation
Text:PAVC 171245Z AUTO 09007KT 2 1/2SM -RA BR OVC010 10/10 A2974 RMK AO2 P0000
Temperature: 10.0°C ( 50°F)
Dewpoint: 10.0°C ( 50°F) [RH = 100%]
Pressure (altimeter):29.74 inches Hg (1007.2 mb)
Winds:from the E (90 degrees) at 8 MPH (7 knots; 3.6 m/s)
Visibility: 2.50 sm ( 4.02 km)
Ceiling:1000 feet AGL
Clouds: overcast cloud deck at 1000 feet AGL
Weather:-RA BR (light rain, mist)
QC Flag:automated observation with no human augmentation
Text:PAVC 171238Z AUTO 11006KT 2SM -RA BR OVC008 10/10 A2975 RMK AO2 CIG 009V013 P0000
Temperature: 10.0°C ( 50°F)
Dewpoint: 10.0°C ( 50°F) [RH = 100%]
Pressure (altimeter):29.75 inches Hg (1007.5 mb)
Winds:from the ESE (110 degrees) at 7 MPH (6 knots; 3.1 m/s)
Visibility: 2.00 sm ( 3.22 km)
Ceiling:800 feet AGL
Clouds: overcast cloud deck at 800 feet AGL
Weather:-RA BR (light rain, mist)
QC Flag:automated observation with no human augmentation
Text:PAVC 171203Z AUTO 08009KT 5SM -RA BR OVC006 10/10 A2975 RMK AO2 CIG 002V011 P0000
Temperature: 10.0°C ( 50°F)
Dewpoint: 10.0°C ( 50°F) [RH = 100%]
Pressure (altimeter):29.75 inches Hg (1007.5 mb)
Winds:from the E (80 degrees) at 10 MPH (9 knots; 4.6 m/s)
Visibility: 5 sm ( 8 km)
Ceiling:600 feet AGL
Clouds: overcast cloud deck at 600 feet AGL
Weather:-RA BR (light rain, mist)
QC Flag:automated observation with no human augmentation
Text:PAVC 171156Z AUTO 09009KT 4SM -RA BR BKN004 BKN009 OVC025 10/10 A2976 RMK AO2 CIG 002V007 SLP082 P0003 60014 70015 T01000100 10106 20094 58023
Temperature: 10.0°C ( 50°F)
Dewpoint: 10.0°C ( 50°F) [RH = 100%]
Pressure (altimeter):29.76 inches Hg (1007.9 mb) [Sea level pressure: 1008.2 mb]
Winds:from the E (90 degrees) at 10 MPH (9 knots; 4.6 m/s)
Visibility: 4 sm ( 6 km)
Ceiling:400 feet AGL
Clouds: broken clouds at 400 feet AGL, broken clouds at 900 feet AGL, overcast cloud deck at 2500 feet AGL
Weather:-RA BR (light rain, mist)
QC Flag:automated observation with no human augmentation
Text:PAVC 171141Z AUTO 08008KT 8SM -RA FEW002 BKN007 OVC025 10/09 A2976 RMK AO2 CIG 007V011 P0002
Temperature: 10.0°C ( 50°F)
Dewpoint: 9.0°C ( 48°F) [RH = 93%]
Pressure (altimeter):29.76 inches Hg (1007.9 mb)
Winds:from the E (80 degrees) at 9 MPH (8 knots; 4.1 m/s)
Visibility: 8 sm ( 13 km)
Ceiling:700 feet AGL
Clouds: few clouds at 200 feet AGL, broken clouds at 700 feet AGL, overcast cloud deck at 2500 feet AGL
Weather:-RA (light rain)
QC Flag:automated observation with no human augmentation
Text:PAVC 171124Z AUTO 08007KT 3SM -RA BR OVC005 09/09 A2977 RMK AO2 CIG 002V008 P0002
Temperature: 9.0°C ( 48°F)
Dewpoint: 9.0°C ( 48°F) [RH = 100%]
Pressure (altimeter):29.77 inches Hg (1008.2 mb)
Winds:from the E (80 degrees) at 8 MPH (7 knots; 3.6 m/s)
Visibility: 3 sm ( 5 km)
Ceiling:500 feet AGL
Clouds: overcast cloud deck at 500 feet AGL
Weather:-RA BR (light rain, mist)
QC Flag:automated observation with no human augmentation
Text:PAVC 171114Z AUTO 09008KT 1 3/4SM -RA BR OVC005 09/09 A2977 RMK AO2 CIG 002V008 P0001
Temperature: 9.0°C ( 48°F)
Dewpoint: 9.0°C ( 48°F) [RH = 100%]
Pressure (altimeter):29.77 inches Hg (1008.2 mb)
Winds:from the E (90 degrees) at 9 MPH (8 knots; 4.1 m/s)
Visibility: 1.75 sm ( 2.82 km)
Ceiling:500 feet AGL
Clouds: overcast cloud deck at 500 feet AGL
Weather:-RA BR (light rain, mist)
QC Flag:automated observation with no human augmentation
Text:PAVC 171105Z AUTO 07007KT 3SM -RA BR OVC003 09/09 A2978 RMK AO2 CIG 002V008 P0001
Temperature: 9.0°C ( 48°F)
Dewpoint: 9.0°C ( 48°F) [RH = 100%]
Pressure (altimeter):29.78 inches Hg (1008.5 mb)
Winds:from the ENE (70 degrees) at 8 MPH (7 knots; 3.6 m/s)
Visibility: 3 sm ( 5 km)
Ceiling:300 feet AGL
Clouds: overcast cloud deck at 300 feet AGL
Weather:-RA BR (light rain, mist)
QC Flag:automated observation with no human augmentation
Text:PAVC 171056Z AUTO 07006KT 2 1/2SM -RA BR OVC005 09/09 A2978 RMK AO2 CIG 002V008 SLP091 P0002 T00940094
Temperature: 9.4°C ( 49°F)
Dewpoint: 9.4°C ( 49°F) [RH = 100%]
Pressure (altimeter):29.78 inches Hg (1008.5 mb) [Sea level pressure: 1009.1 mb]
Winds:from the ENE (70 degrees) at 7 MPH (6 knots; 3.1 m/s)
Visibility: 2.50 sm ( 4.02 km)
Ceiling:500 feet AGL
Clouds: overcast cloud deck at 500 feet AGL
Weather:-RA BR (light rain, mist)
QC Flag:automated observation with no human augmentation
Text:PAVC 171053Z AUTO 07008KT 2 1/2SM -RA BR OVC005 09/09 A2978 RMK AO2 CIG 002V008 P0002
Temperature: 9.0°C ( 48°F)
Dewpoint: 9.0°C ( 48°F) [RH = 100%]
Pressure (altimeter):29.78 inches Hg (1008.5 mb)
Winds:from the ENE (70 degrees) at 9 MPH (8 knots; 4.1 m/s)
Visibility: 2.50 sm ( 4.02 km)
Ceiling:500 feet AGL
Clouds: overcast cloud deck at 500 feet AGL
Weather:-RA BR (light rain, mist)
QC Flag:automated observation with no human augmentation
Text:PAVC 171048Z AUTO 07008KT 3SM -RA BR OVC007 09/09 A2978 RMK AO2 CIG 002V009 P0002
Temperature: 9.0°C ( 48°F)
Dewpoint: 9.0°C ( 48°F) [RH = 100%]
Pressure (altimeter):29.78 inches Hg (1008.5 mb)
Winds:from the ENE (70 degrees) at 9 MPH (8 knots; 4.1 m/s)
Visibility: 3 sm ( 5 km)
Ceiling:700 feet AGL
Clouds: overcast cloud deck at 700 feet AGL
Weather:-RA BR (light rain, mist)
QC Flag:automated observation with no human augmentation
Text:PAVC 171039Z AUTO 08008KT 1 3/4SM -RA BR BKN007 OVC012 10/09 A2979 RMK AO2 VIS 1 1/4V4 CIG 002V010 P0001
Temperature: 10.0°C ( 50°F)
Dewpoint: 9.0°C ( 48°F) [RH = 93%]
Pressure (altimeter):29.79 inches Hg (1008.9 mb)
Winds:from the E (80 degrees) at 9 MPH (8 knots; 4.1 m/s)
Visibility: 1.75 sm ( 2.82 km)
Ceiling:700 feet AGL
Clouds: broken clouds at 700 feet AGL, overcast cloud deck at 1200 feet AGL
Weather:-RA BR (light rain, mist)
QC Flag:automated observation with no human augmentation
Text:PAVC 171026Z AUTO 06008KT 7SM -RA BKN007 BKN010 OVC018 10/09 A2980 RMK AO2 P0001
Temperature: 10.0°C ( 50°F)
Dewpoint: 9.0°C ( 48°F) [RH = 93%]
Pressure (altimeter):29.80 inches Hg (1009.2 mb)
Winds:from the ENE (60 degrees) at 9 MPH (8 knots; 4.1 m/s)
Visibility: 7 sm ( 11 km)
Ceiling:700 feet AGL
Clouds: broken clouds at 700 feet AGL, broken clouds at 1000 feet AGL, overcast cloud deck at 1800 feet AGL
Weather:-RA (light rain)
QC Flag:automated observation with no human augmentation
Text:PAVC 171009Z AUTO 05009KT 4SM -RA BR FEW005 SCT009 OVC018 10/09 A2981 RMK AO2 P0001
Temperature: 10.0°C ( 50°F)
Dewpoint: 9.0°C ( 48°F) [RH = 93%]
Pressure (altimeter):29.81 inches Hg (1009.6 mb)
Winds:from the NE (50 degrees) at 10 MPH (9 knots; 4.6 m/s)
Visibility: 4 sm ( 6 km)
Ceiling:1800 feet AGL
Clouds: few clouds at 500 feet AGL, scattered clouds at 900 feet AGL, overcast cloud deck at 1800 feet AGL
Weather:-RA BR (light rain, mist)
QC Flag:automated observation with no human augmentation
Text:PAVC 170956Z AUTO 05009KT 7SM -RA BKN005 OVC016 10/09 A2982 RMK AO2 CIG 004V010 SLP102 P0005 T01000094
Temperature: 10.0°C ( 50°F)
Dewpoint: 9.4°C ( 49°F) [RH = 96%]
Pressure (altimeter):29.82 inches Hg (1009.9 mb) [Sea level pressure: 1010.2 mb]
Winds:from the NE (50 degrees) at 10 MPH (9 knots; 4.6 m/s)
Visibility: 7 sm ( 11 km)
Ceiling:500 feet AGL
Clouds: broken clouds at 500 feet AGL, overcast cloud deck at 1600 feet AGL
Weather:-RA (light rain)
QC Flag:automated observation with no human augmentation
Text:PAVC 170931Z AUTO 03011KT 4SM -RA BR OVC005 09/09 A2982 RMK AO2 CIG 002V009 P0004
Temperature: 9.0°C ( 48°F)
Dewpoint: 9.0°C ( 48°F) [RH = 100%]
Pressure (altimeter):29.82 inches Hg (1009.9 mb)
Winds:from the NNE (30 degrees) at 13 MPH (11 knots; 5.7 m/s)
Visibility: 4 sm ( 6 km)
Ceiling:500 feet AGL
Clouds: overcast cloud deck at 500 feet AGL
Weather:-RA BR (light rain, mist)
QC Flag:automated observation with no human augmentation
Text:PAVC 170914Z AUTO 04009KT 5SM -RA BR BKN003 BKN010 OVC021 09/09 A2983 RMK AO2 CIG 001V007 P0002
Temperature: 9.0°C ( 48°F)
Dewpoint: 9.0°C ( 48°F) [RH = 100%]
Pressure (altimeter):29.83 inches Hg (1010.2 mb)
Winds:from the NE (40 degrees) at 10 MPH (9 knots; 4.6 m/s)
Visibility: 5 sm ( 8 km)
Ceiling:300 feet AGL
Clouds: broken clouds at 300 feet AGL, broken clouds at 1000 feet AGL, overcast cloud deck at 2100 feet AGL
Weather:-RA BR (light rain, mist)
QC Flag:automated observation with no human augmentation
Text:PAVC 170856Z AUTO 07011KT 4SM -RA BR FEW003 SCT016 OVC021 09/09 A2982 RMK AO2 SLP105 P0003 60004 T00940094 401500094 58014
Temperature: 9.4°C ( 49°F)
Dewpoint: 9.4°C ( 49°F) [RH = 100%]
Pressure (altimeter):29.82 inches Hg (1009.9 mb) [Sea level pressure: 1010.5 mb]
Winds:from the ENE (70 degrees) at 13 MPH (11 knots; 5.7 m/s)
Visibility: 4 sm ( 6 km)
Ceiling:2100 feet AGL
Clouds: few clouds at 300 feet AGL, scattered clouds at 1600 feet AGL, overcast cloud deck at 2100 feet AGL
Weather:-RA BR (light rain, mist)
QC Flag:automated observation with no human augmentation
Text:PAVC 170847Z AUTO 07011KT 5SM -RA BR SCT005 SCT008 OVC021 09/09 A2983 RMK AO2 P0003
Temperature: 9.0°C ( 48°F)
Dewpoint: 9.0°C ( 48°F) [RH = 100%]
Pressure (altimeter):29.83 inches Hg (1010.2 mb)
Winds:from the ENE (70 degrees) at 13 MPH (11 knots; 5.7 m/s)
Visibility: 5 sm ( 8 km)
Ceiling:2100 feet AGL
Clouds: scattered clouds at 500 feet AGL, scattered clouds at 800 feet AGL, overcast cloud deck at 2100 feet AGL
Weather:-RA BR (light rain, mist)
QC Flag:automated observation with no human augmentation
Text:PAVC 170756Z AUTO 03009KT 7SM -RA BKN005 OVC009 10/09 A2985 RMK AO2 RAB32 SLP112 P0001 T01000094
Temperature: 10.0°C ( 50°F)
Dewpoint: 9.4°C ( 49°F) [RH = 96%]
Pressure (altimeter):29.85 inches Hg (1010.9 mb) [Sea level pressure: 1011.2 mb]
Winds:from the NNE (30 degrees) at 10 MPH (9 knots; 4.6 m/s)
Visibility: 7 sm ( 11 km)
Ceiling:500 feet AGL
Clouds: broken clouds at 500 feet AGL, overcast cloud deck at 900 feet AGL
Weather:-RA (light rain)
QC Flag:automated observation with no human augmentation
Text:PAVC 170752Z AUTO 02010KT 7SM -RA OVC007 10/09 A2985 RMK AO2 RAB32 CIG 004V013 P0001
Temperature: 10.0°C ( 50°F)
Dewpoint: 9.0°C ( 48°F) [RH = 93%]
Pressure (altimeter):29.85 inches Hg (1010.9 mb)
Winds:from the NNE (20 degrees) at 12 MPH (10 knots; 5.1 m/s)
Visibility: 7 sm ( 11 km)
Ceiling:700 feet AGL
Clouds: overcast cloud deck at 700 feet AGL
Weather:-RA (light rain)
QC Flag:automated observation with no human augmentation

TAF for:PAVC (King Cove Arpt, AK, US)
Text:No data found